Time;durP1;ratioP1;P1;durP2;ratioP2;P2;SDS_P1;SDS_P2;PMS_P1;PMS_P2;Temp;Humidity;BMP_temperature;BMP_pressure;BME280_temperature;BME280_humidity;BME280_pressure;Samples;Min_cycle;Max_cycle;Signal;HPM_P1;HPM_P2
2023/07/05 03:02:20;;;;;;;3.47;2.15;;;15.70;93.60;;;;;;5018370;28;20235;-89
2023/07/05 03:08:10;;;;;;;2.50;2.08;;;15.50;94.20;;;;;;5037012;28;20627;-91
2023/07/05 03:10:59;;;;;;;3.55;1.90;;;15.50;94.60;;;;;;5002090;28;20234;-91
2023/07/05 04:58:56;;;;;;;2.90;2.20;;;16.40;91.80;;;;;;4995447;28;20281;-91
2023/07/05 05:14:34;;;;;;;3.03;2.08;;;17.30;89.00;;;;;;4893393;28;20204;-91
2023/07/05 05:17:01;;;;;;;3.88;1.70;;;17.30;86.00;;;;;;4977778;28;20670;-92
2023/07/05 05:19:28;;;;;;;3.17;1.88;;;17.40;86.70;;;;;;5014707;28;20690;-91
2023/07/05 05:21:55;;;;;;;3.05;2.03;;;17.50;86.20;;;;;;5030838;28;20210;-92
2023/07/05 05:27:10;;;;;;;3.05;1.85;;;18.00;85.50;;;;;;5022544;28;20195;-93
2023/07/05 05:29:57;;;;;;;3.03;2.20;;;18.20;82.70;;;;;;5005017;28;20207;-92
2023/07/05 05:41:27;;;;;;;5.40;2.22;;;18.60;78.50;;;;;;5021074;28;20202;-90
2023/07/05 05:46:42;;;;;;;4.07;2.03;;;18.70;76.20;;;;;;5005386;28;20260;-91
2023/07/05 05:49:09;;;;;;;2.20;1.98;;;18.80;75.40;;;;;;5036018;28;20202;-89
2023/07/05 05:51:36;;;;;;;3.90;1.80;;;18.90;75.20;;;;;;5030568;28;20218;-92
2023/07/05 05:54:03;;;;;;;3.88;2.10;;;19.10;72.30;;;;;;5036901;28;20541;-89
2023/07/05 05:56:30;;;;;;;4.28;1.95;;;19.20;67.80;;;;;;5021824;28;20193;-92
2023/07/05 06:01:57;;;;;;;2.88;2.17;;;19.10;68.20;;;;;;4989157;28;20754;-91
2023/07/05 06:04:42;;;;;;;2.95;1.83;;;19.20;67.00;;;;;;4986431;28;20204;-90
2023/07/05 06:09:51;;;;;;;3.35;1.80;;;19.20;65.00;;;;;;4976250;28;20230;-90
2023/07/05 06:12:41;;;;;;;5.05;1.90;;;19.20;66.90;;;;;;4970181;28;20194;-91
2023/07/05 06:24:08;;;;;;;3.53;2.10;;;20.20;57.80;;;;;;4956432;28;20757;-93
2023/07/05 06:26:43;;;;;;;4.75;1.83;;;20.30;56.10;;;;;;4989803;28;20196;-91
2023/07/05 06:31:50;;;;;;;2.20;2.00;;;20.30;58.80;;;;;;5065285;28;20226;-91
2023/07/05 06:34:17;;;;;;;3.67;1.60;;;20.50;56.30;;;;;;5058396;28;20704;-91
2023/07/05 06:37:26;;;;;;;2.88;1.90;;;20.40;58.10;;;;;;5026564;28;20206;-92
2023/07/05 06:39:53;;;;;;;4.30;2.05;;;20.40;56.20;;;;;;5069147;28;20216;-92
2023/07/05 06:42:20;;;;;;;3.55;1.80;;;20.30;56.10;;;;;;5077652;28;20249;-92
2023/07/05 06:47:50;;;;;;;2.65;1.65;;;20.30;56.10;;;;;;5060279;28;20202;-92
2023/07/05 07:05:51;;;;;;;2.88;1.70;;;20.40;56.20;;;;;;5005348;28;20189;-91
2023/07/05 07:14:33;;;;;;;3.60;1.90;;;20.70;56.50;;;;;;5024332;28;20202;-92
2023/07/05 07:17:00;;;;;;;4.00;1.80;;;20.90;53.00;;;;;;5041721;28;20262;-91
2023/07/05 07:19:46;;;;;;;2.42;1.73;;;21.00;51.30;;;;;;5097390;23;20284;-90
2023/07/05 07:22:15;;;;;;;6.15;2.00;;;21.00;50.30;;;;;;5042831;28;20190;-92
2023/07/05 07:34:08;;;;;;;2.90;1.73;;;21.50;52.20;;;;;;4972316;28;20204;-91
2023/07/05 07:36:36;;;;;;;2.70;2.10;;;21.60;50.30;;;;;;4980269;28;20196;-91
2023/07/05 07:39:03;;;;;;;2.92;2.00;;;21.60;49.20;;;;;;4973400;28;20298;-92
2023/07/05 07:44:38;;;;;;;2.67;2.20;;;21.60;49.50;;;;;;4976390;28;20216;-92
2023/07/05 07:47:06;;;;;;;2.47;1.98;;;21.90;45.50;;;;;;5065071;28;20194;-90
2023/07/05 07:52:30;;;;;;;3.58;2.10;;;21.90;46.50;;;;;;5062125;28;20232;-93
2023/07/05 08:03:10;;;;;;;37.05;33.22;;;22.60;40.50;;;;;;5037892;28;20257;-91
2023/07/05 08:05:37;;;;;;;18.45;16.48;;;22.40;43.00;;;;;;5031183;28;20195;-91
2023/07/05 08:08:04;;;;;;;9.27;5.57;;;22.40;43.50;;;;;;5049603;28;20194;-91
2023/07/05 08:10:32;;;;;;;5.53;3.47;;;22.30;41.20;;;;;;5045132;28;20551;-91
2023/07/05 08:18:21;;;;;;;8.07;5.63;;;22.30;41.70;;;;;;5045558;28;20309;-91
2023/07/05 08:20:48;;;;;;;26.00;22.98;;;22.40;40.00;;;;;;5028712;28;20205;-91
2023/07/05 08:23:15;;;;;;;5.45;4.50;;;22.60;40.50;;;;;;5041953;28;20213;-91
2023/07/05 08:25:43;;;;;;;4.55;3.10;;;22.70;39.00;;;;;;5030700;28;20269;-91
2023/07/05 08:34:10;;;;;;;3.63;2.67;;;23.20;34.80;;;;;;5022591;28;20286;-91
2023/07/05 08:36:57;;;;;;;2.85;2.35;;;23.30;34.80;;;;;;5039511;28;20255;-92
2023/07/05 08:39:24;;;;;;;5.80;3.00;;;23.20;34.80;;;;;;5041959;28;20250;-89
2023/07/05 08:42:10;;;;;;;4.13;2.70;;;23.40;34.90;;;;;;5035208;28;20318;-90
2023/07/05 08:48:16;;;;;;;4.53;2.60;;;24.00;31.60;;;;;;5049696;28;20237;-89
2023/07/05 08:50:50;;;;;;;3.00;2.70;;;24.30;29.10;;;;;;5033707;28;20221;-90
2023/07/05 08:56:08;;;;;;;2.80;2.30;;;24.20;27.60;;;;;;5028872;28;20234;-91
2023/07/05 08:58:56;;;;;;;3.90;2.70;;;24.30;26.10;;;;;;5036509;28;20667;-91
2023/07/05 09:01:54;;;;;;;3.20;2.67;;;24.80;26.10;;;;;;5035506;28;20206;-92
2023/07/05 09:04:24;;;;;;;4.95;2.40;;;25.70;24.80;;;;;;4997320;28;20205;-90
2023/07/05 09:06:56;;;;;;;3.95;2.67;;;26.20;19.50;;;;;;5029970;28;20202;-90
2023/07/05 09:15:34;;;;;;;2.58;2.38;;;28.70;13.80;;;;;;5006880;28;20300;-91
2023/07/05 09:21:25;;;;;;;2.90;2.47;;;26.90;15.20;;;;;;5026087;28;20214;-91
2023/07/05 09:26:40;;;;;;;5.18;2.63;;;27.00;15.60;;;;;;5005561;28;20917;-91
2023/07/05 09:29:15;;;;;;;6.78;6.20;;;28.10;14.80;;;;;;5026876;28;20198;-91
2023/07/05 09:37:47;;;;;;;2.88;2.60;;;27.10;15.20;;;;;;5028091;28;20275;-92
2023/07/05 09:40:18;;;;;;;2.85;2.65;;;27.70;15.50;;;;;;5021355;28;21000;-92
2023/07/05 09:51:34;;;;;;;3.83;2.88;;;27.10;16.90;;;;;;5024463;28;20209;-92
2023/07/05 09:54:03;;;;;;;3.63;2.92;;;27.90;15.60;;;;;;5030912;28;20194;-91
2023/07/05 09:56:30;;;;;;;3.30;3.00;;;28.60;15.90;;;;;;5014073;28;20230;-92
2023/07/05 09:59:16;;;;;;;7.65;3.05;;;29.40;13.50;;;;;;5029952;28;20254;-92
2023/07/05 10:01:48;;;;;;;3.45;3.20;;;30.10;11.90;;;;;;5027494;28;20202;-92
2023/07/05 10:04:17;;;;;;;6.00;3.00;;;29.70;11.70;;;;;;5027040;28;20205;-91
2023/07/05 10:06:55;;;;;;;6.65;2.90;;;29.40;11.40;;;;;;4996276;28;20252;-91
2023/07/05 10:09:24;;;;;;;4.47;3.25;;;29.20;13.10;;;;;;5009026;28;20623;-91
2023/07/05 10:11:53;;;;;;;4.57;3.17;;;28.60;13.90;;;;;;5023032;28;20212;-91
2023/07/05 10:14:22;;;;;;;3.78;2.90;;;28.50;16.00;;;;;;5026184;28;20210;-91
2023/07/05 10:16:52;;;;;;;6.40;3.35;;;28.40;15.80;;;;;;5027799;28;20205;-91
2023/07/05 10:19:31;;;;;;;4.22;2.85;;;28.40;15.80;;;;;;5031669;28;20727;-92
2023/07/05 10:22:06;;;;;;;3.10;2.75;;;27.80;15.50;;;;;;5025265;28;20229;-91
2023/07/05 10:27:28;;;;;;;3.60;3.15;;;27.90;15.60;;;;;;5028043;28;20261;-91
2023/07/05 10:30:01;;;;;;;4.35;3.40;;;28.00;15.70;;;;;;5030112;28;20546;-91
2023/07/05 10:32:31;;;;;;;4.47;3.30;;;28.40;15.80;;;;;;5013172;28;20221;-90
2023/07/05 10:34:58;;;;;;;5.55;3.22;;;28.20;16.60;;;;;;5014828;28;20213;-91
2023/07/05 10:37:35;;;;;;;4.07;3.10;;;27.70;15.50;;;;;;5026414;28;20202;-90
2023/07/05 10:40:05;;;;;;;3.53;3.25;;;27.20;16.20;;;;;;5008986;28;20213;-91
2023/07/05 10:42:33;;;;;;;5.50;3.08;;;27.10;17.60;;;;;;5017225;28;20612;-91
2023/07/05 10:45:03;;;;;;;3.78;3.38;;;26.90;16.40;;;;;;5026993;28;20205;-90
2023/07/05 10:47:32;;;;;;;4.50;3.33;;;26.50;18.20;;;;;;5033177;28;20229;-91
2023/07/05 10:50:04;;;;;;;3.40;3.10;;;26.10;19.40;;;;;;5015285;28;20206;-88
2023/07/05 10:52:36;;;;;;;4.38;3.50;;;25.50;22.10;;;;;;5012880;28;20684;-88
2023/07/05 10:55:10;;;;;;;5.07;3.60;;;24.90;22.90;;;;;;5009701;28;20203;-91
2023/07/05 10:57:42;;;;;;;7.13;6.30;;;24.40;25.00;;;;;;5012033;28;20273;-90
2023/07/05 11:00:21;;;;;;;9.80;6.95;;;24.00;26.40;;;;;;5028658;28;20251;-90
2023/07/05 11:02:55;;;;;;;5.63;3.40;;;23.40;29.60;;;;;;5027490;28;20265;-90
2023/07/05 11:05:27;;;;;;;17.40;3.65;;;22.80;34.40;;;;;;5027522;28;20264;-90
2023/07/05 11:07:59;;;;;;;11.02;4.30;;;22.20;48.10;;;;;;5018652;28;20202;-89
2023/07/05 11:10:28;;;;;;;11.48;4.63;;;21.20;60.40;;;;;;5026209;28;20210;-90
2023/07/05 11:12:55;;;;;;;7.45;4.10;;;20.50;78.30;;;;;;5027886;28;20209;-89
2023/07/05 11:15:22;;;;;;;7.95;4.22;;;20.10;86.80;;;;;;5027550;28;20212;-90
2023/07/05 11:17:50;;;;;;;7.90;3.75;;;20.00;91.60;;;;;;5005270;28;20273;-89
2023/07/05 11:20:49;;;;;;;7.65;4.40;;;20.10;92.20;;;;;;5027742;28;20242;-87
2023/07/05 11:23:56;;;;;;;10.43;4.90;;;20.40;92.70;;;;;;5030948;28;20285;-86
2023/07/05 11:29:47;;;;;;;7.18;4.35;;;21.00;92.50;;;;;;5405517;22;20649;-87
2023/07/05 11:32:15;;;;;;;8.57;4.47;;;21.40;89.50;;;;;;5041985;28;20201;-91
2023/07/05 11:34:51;;;;;;;7.38;4.45;;;21.60;89.40;;;;;;5027371;28;20206;-91
2023/07/05 11:37:47;;;;;;;7.32;4.32;;;21.80;90.20;;;;;;5044487;28;20206;-91
2023/07/05 11:41:00;;;;;;;7.82;4.18;;;21.60;86.60;;;;;;5030881;28;20247;-90
2023/07/05 11:46:49;;;;;;;4.32;3.28;;;20.80;78.20;;;;;;5045559;28;20214;-92
2023/07/05 11:49:39;;;;;;;8.02;3.17;;;20.30;82.40;;;;;;4987860;28;20211;-91
2023/07/05 11:55:10;;;;;;;5.47;3.00;;;19.70;84.60;;;;;;5043586;28;20663;-90
2023/07/05 11:57:44;;;;;;;5.90;2.92;;;19.50;83.90;;;;;;5029422;28;20279;-91
2023/07/05 12:09:20;;;;;;;4.90;3.72;;;19.70;78.70;;;;;;5026558;28;20761;-91
2023/07/05 12:15:50;;;;;;;5.20;3.00;;;19.60;77.80;;;;;;5057582;28;20646;-90
2023/07/05 12:42:14;;;;;;;8.73;2.90;;;18.70;91.00;;;;;;4966792;28;20553;-91
2023/07/05 12:44:42;;;;;;;4.28;2.70;;;18.80;90.10;;;;;;5008955;28;20373;-91
2023/07/05 12:47:22;;;;;;;5.07;2.70;;;18.80;90.50;;;;;;5035966;28;20716;-92
2023/07/05 12:49:50;;;;;;;6.75;3.03;;;18.90;90.10;;;;;;5053365;28;20197;-89
2023/07/05 12:52:19;;;;;;;4.30;2.90;;;19.00;90.40;;;;;;5050106;28;20205;-92
2023/07/05 12:54:49;;;;;;;4.53;2.50;;;19.20;90.10;;;;;;5045403;28;20190;-93
2023/07/05 12:57:29;;;;;;;3.83;2.70;;;19.30;86.00;;;;;;5044280;28;20201;-90
2023/07/05 12:59:56;;;;;;;3.15;2.40;;;19.40;88.10;;;;;;5034256;28;20222;-91
2023/07/05 13:02:30;;;;;;;4.70;2.53;;;19.40;83.60;;;;;;5048230;28;20208;-91
2023/07/05 13:05:05;;;;;;;2.88;2.50;;;19.60;82.70;;;;;;5035344;28;20677;-91
2023/07/05 13:07:33;;;;;;;6.03;2.22;;;19.50;82.10;;;;;;5050299;28;20212;-92
2023/07/05 13:12:48;;;;;;;4.25;2.20;;;19.40;81.60;;;;;;5046676;28;20194;-92
2023/07/05 13:15:16;;;;;;;5.10;2.58;;;19.40;84.00;;;;;;5050530;28;20205;-92
2023/07/05 13:17:43;;;;;;;3.58;2.47;;;19.50;81.40;;;;;;5048411;28;20263;-91
2023/07/05 13:20:23;;;;;;;3.70;2.20;;;19.50;81.50;;;;;;5031902;28;20243;-93
2023/07/05 13:23:10;;;;;;;3.40;2.28;;;19.60;80.50;;;;;;5031453;28;20280;-92
2023/07/05 13:34:00;;;;;;;3.33;2.17;;;20.60;77.00;;;;;;5004702;28;20221;-92
2023/07/05 13:36:28;;;;;;;4.47;2.03;;;20.60;76.50;;;;;;5030004;28;20206;-91
2023/07/05 13:38:55;;;;;;;3.45;2.20;;;20.50;74.10;;;;;;5010947;28;20210;-93
2023/07/05 13:55:25;;;;;;;2.30;2.10;;;21.30;70.00;;;;;;5046489;28;20208;-92
2023/07/05 13:58:11;;;;;;;2.40;2.20;;;21.50;66.60;;;;;;5024067;28;20278;-88
2023/07/05 14:00:38;;;;;;;3.58;2.08;;;21.60;61.50;;;;;;5035781;28;20210;-90
2023/07/05 14:03:06;;;;;;;2.58;1.90;;;21.60;62.10;;;;;;5042136;28;20218;-94
2023/07/05 14:05:33;;;;;;;3.13;2.00;;;21.70;57.50;;;;;;5025037;28;20206;-92
2023/07/05 14:08:39;;;;;;;3.15;2.13;;;21.90;57.60;;;;;;5053509;28;20206;-92
2023/07/05 14:11:06;;;;;;;3.78;2.40;;;22.20;57.90;;;;;;5043818;28;20186;-92
2023/07/05 14:13:34;;;;;;;4.32;2.20;;;22.40;58.10;;;;;;5031248;28;20198;-89
2023/07/05 14:16:01;;;;;;;6.32;2.08;;;22.70;56.50;;;;;;5023956;28;20229;-87
2023/07/05 14:18:28;;;;;;;2.13;1.90;;;22.90;49.10;;;;;;5036048;28;20313;-88
2023/07/05 14:20:55;;;;;;;3.08;2.00;;;22.60;50.40;;;;;;5034677;28;20229;-87
2023/07/05 14:34:08;;;;;;;2.00;1.80;;;21.60;55.50;;;;;;5054996;28;20203;-91
2023/07/05 14:36:35;;;;;;;2.17;1.90;;;21.50;57.30;;;;;;5011409;28;20203;-89
2023/07/05 14:39:02;;;;;;;3.65;1.80;;;21.40;61.80;;;;;;5020902;28;20670;-89
2023/07/05 14:41:30;;;;;;;2.30;1.80;;;21.40;58.70;;;;;;5003715;28;20362;-89
2023/07/05 14:46:38;;;;;;;2.08;1.88;;;21.40;57.20;;;;;;5026538;28;20658;-89
2023/07/05 14:49:07;;;;;;;4.35;2.00;;;21.40;57.20;;;;;;5038540;28;20206;-89
2023/07/05 14:51:34;;;;;;;4.18;2.22;;;21.50;57.30;;;;;;5013302;28;20242;-87
2023/07/05 14:54:01;;;;;;;2.22;2.03;;;21.60;58.00;;;;;;5033208;28;20238;-86
2023/07/05 14:56:29;;;;;;;2.17;1.98;;;21.70;57.50;;;;;;5030685;28;20659;-88
2023/07/05 14:58:55;;;;;;;2.13;1.90;;;21.50;57.30;;;;;;5010104;28;20640;-88
2023/07/05 15:02:06;;;;;;;3.40;2.00;;;21.60;57.40;;;;;;5038412;28;20577;-89
2023/07/05 15:07:18;;;;;;;2.22;1.80;;;22.40;56.60;;;;;;4956710;28;20688;-88
2023/07/05 15:16:54;;;;;;;1.65;1.50;;;22.70;46.20;;;;;;4998810;28;20271;-87
2023/07/05 15:19:21;;;;;;;2.70;1.85;;;22.40;47.70;;;;;;4987284;28;20259;-90
2023/07/05 15:24:31;;;;;;;2.15;1.92;;;22.80;42.20;;;;;;5037696;28;20198;-87
2023/07/05 15:26:58;;;;;;;1.92;1.80;;;22.90;42.90;;;;;;5035020;28;20293;-89
2023/07/05 15:29:25;;;;;;;2.17;1.90;;;23.20;43.10;;;;;;5029793;28;20213;-87
2023/07/05 15:32:12;;;;;;;2.92;2.15;;;23.10;42.30;;;;;;5034543;28;20279;-91
2023/07/05 15:34:41;;;;;;;1.75;1.65;;;22.70;44.30;;;;;;5033025;28;20648;-90
2023/07/05 15:37:09;;;;;;;3.63;2.10;;;22.40;46.20;;;;;;5036017;28;20209;-90
2023/07/05 15:39:36;;;;;;;2.58;1.70;;;22.10;48.70;;;;;;5032521;28;20202;-88
2023/07/05 15:42:13;;;;;;;3.22;1.73;;;22.00;50.60;;;;;;5036414;28;20272;-89
2023/07/05 15:44:40;;;;;;;3.17;2.03;;;21.90;49.40;;;;;;5034570;28;20229;-89
2023/07/05 15:47:07;;;;;;;3.60;1.77;;;21.90;49.10;;;;;;5021401;28;20260;-89
2023/07/05 15:49:42;;;;;;;2.22;1.92;;;22.00;48.30;;;;;;5020634;28;20257;-89
2023/07/05 15:52:36;;;;;;;3.08;1.85;;;22.00;50.00;;;;;;5021463;28;20248;-88
2023/07/05 15:55:04;;;;;;;2.60;1.75;;;22.10;49.40;;;;;;5035581;28;20264;-86
2023/07/05 15:57:49;;;;;;;3.80;2.17;;;22.10;51.60;;;;;;5037932;28;20228;-88
2023/07/05 16:16:57;;;;;;;6.07;2.97;;;20.90;60.90;;;;;;5018391;28;20191;-87
2023/07/05 16:22:04;;;;;;;3.22;1.90;;;20.80;61.00;;;;;;5056595;28;20222;-90
2023/07/05 16:24:33;;;;;;;2.88;1.80;;;20.80;59.20;;;;;;5057406;28;20198;-89
2023/07/05 16:27:00;;;;;;;3.33;1.88;;;20.80;58.80;;;;;;5057631;28;20308;-91
2023/07/05 16:29:32;;;;;;;3.88;1.92;;;20.90;60.60;;;;;;5056254;28;20281;-91
2023/07/05 16:35:22;;;;;;;3.97;1.80;;;21.40;57.20;;;;;;5037957;28;20185;-89
2023/07/05 16:37:51;;;;;;;2.25;2.05;;;21.50;57.30;;;;;;5046565;28;20212;-92
2023/07/05 16:43:08;;;;;;;2.78;2.00;;;21.60;56.10;;;;;;5049810;28;20201;-90
2023/07/05 16:46:01;;;;;;;2.60;1.92;;;21.60;55.80;;;;;;5054694;28;20206;-91
2023/07/05 16:48:34;;;;;;;3.38;1.70;;;21.60;55.60;;;;;;5049766;28;20227;-89
2023/07/05 16:51:08;;;;;;;3.22;2.38;;;21.60;56.50;;;;;;5048583;28;20833;-92
2023/07/05 16:53:37;;;;;;;2.10;1.90;;;21.60;56.20;;;;;;5053332;28;20666;-91
2023/07/05 16:56:10;;;;;;;4.63;2.10;;;21.40;57.20;;;;;;5061554;28;20198;-91
2023/07/05 16:58:43;;;;;;;3.15;2.55;;;21.30;57.10;;;;;;5050270;28;20194;-91
2023/07/05 17:01:13;;;;;;;2.50;2.00;;;21.20;57.00;;;;;;5044593;28;20262;-90
2023/07/05 17:03:41;;;;;;;1.95;1.75;;;21.20;58.80;;;;;;5050621;28;20205;-91
2023/07/05 17:06:10;;;;;;;2.80;2.22;;;21.20;58.40;;;;;;5051458;28;20277;-91
2023/07/05 17:08:55;;;;;;;2.20;2.00;;;21.10;56.90;;;;;;5051947;28;20336;-91
2023/07/05 17:11:23;;;;;;;5.30;2.10;;;21.10;56.90;;;;;;5053760;28;20563;-91
2023/07/05 17:16:31;;;;;;;4.03;2.00;;;21.00;56.90;;;;;;5042893;28;20221;-91
2023/07/05 17:19:00;;;;;;;1.80;1.70;;;20.90;56.70;;;;;;5048597;28;20224;-92
2023/07/05 17:21:27;;;;;;;2.03;1.85;;;20.80;56.60;;;;;;5049511;28;20694;-92
2023/07/05 17:26:46;;;;;;;2.75;2.28;;;20.80;56.60;;;;;;5049617;28;20205;-91
2023/07/05 17:29:14;;;;;;;2.47;1.83;;;20.80;56.70;;;;;;5050525;28;20216;-87
2023/07/05 17:31:41;;;;;;;4.60;2.13;;;20.80;56.60;;;;;;5051400;28;20241;-90
2023/07/05 17:34:08;;;;;;;3.03;2.22;;;20.80;56.60;;;;;;5047882;28;20244;-91
2023/07/05 17:36:36;;;;;;;2.20;2.00;;;20.80;56.70;;;;;;5048469;28;21030;-92
2023/07/05 17:39:22;;;;;;;2.03;1.85;;;20.70;56.50;;;;;;5053279;28;20198;-92
2023/07/05 17:41:52;;;;;;;4.07;2.15;;;20.70;56.90;;;;;;5045759;28;20309;-90
2023/07/05 17:44:19;;;;;;;3.08;2.20;;;20.70;58.30;;;;;;5044713;28;20267;-85
2023/07/05 17:46:46;;;;;;;2.75;2.00;;;20.70;57.40;;;;;;5025983;28;20194;-86
2023/07/05 17:49:13;;;;;;;2.10;1.90;;;20.60;57.60;;;;;;5048529;28;20565;-84
2023/07/05 17:51:41;;;;;;;3.42;1.88;;;20.60;57.30;;;;;;5047710;28;20202;-88
2023/07/05 17:54:10;;;;;;;3.35;2.08;;;20.50;58.30;;;;;;5037413;28;20205;-84
2023/07/05 17:56:37;;;;;;;4.10;2.00;;;20.40;60.40;;;;;;5042732;28;20191;-84
2023/07/05 17:59:05;;;;;;;3.03;2.30;;;20.30;60.10;;;;;;5036323;28;20195;-87
2023/07/05 18:01:32;;;;;;;2.17;1.98;;;20.30;63.00;;;;;;5045369;28;20222;-87
2023/07/05 18:03:59;;;;;;;2.35;2.00;;;20.20;62.40;;;;;;5047334;28;20202;-88
2023/07/05 18:06:26;;;;;;;4.50;1.90;;;20.20;61.40;;;;;;5043458;28;20197;-87
2023/07/05 18:08:53;;;;;;;2.40;2.08;;;20.20;61.20;;;;;;5047936;28;20259;-87
2023/07/05 18:11:23;;;;;;;3.33;2.10;;;20.30;60.90;;;;;;5047112;28;20666;-88
2023/07/05 18:13:52;;;;;;;2.63;2.00;;;20.30;60.30;;;;;;5041422;28;20198;-90
2023/07/05 18:16:22;;;;;;;3.25;1.77;;;20.30;61.50;;;;;;5042759;28;20217;-85
2023/07/05 18:18:49;;;;;;;2.20;2.00;;;20.30;63.00;;;;;;5038133;28;20226;-88
2023/07/05 18:21:16;;;;;;;3.03;2.33;;;20.20;63.50;;;;;;5037794;28;21761;-87
2023/07/05 18:23:45;;;;;;;2.47;1.75;;;20.10;64.60;;;;;;5033565;28;20628;-88
2023/07/05 18:26:14;;;;;;;3.75;2.30;;;20.00;65.00;;;;;;5041922;28;20240;-89
2023/07/05 18:28:41;;;;;;;2.42;1.85;;;19.90;66.30;;;;;;5043595;28;20194;-89
2023/07/05 18:31:08;;;;;;;3.97;2.20;;;19.80;67.50;;;;;;5044484;28;20206;-86
2023/07/05 18:33:37;;;;;;;4.13;2.10;;;19.80;67.90;;;;;;5041717;28;20548;-87
2023/07/05 18:36:05;;;;;;;3.30;2.10;;;19.70;69.20;;;;;;5043759;28;20230;-87
2023/07/05 18:38:34;;;;;;;2.75;2.10;;;19.60;71.00;;;;;;5044917;28;20199;-87
2023/07/05 18:41:07;;;;;;;5.03;2.10;;;19.60;74.20;;;;;;5038671;28;20197;-88
2023/07/05 18:43:34;;;;;;;2.55;2.08;;;19.50;75.70;;;;;;5035984;28;20204;-86
2023/07/05 18:46:01;;;;;;;2.20;2.00;;;19.40;75.20;;;;;;5041671;28;20305;-89
2023/07/05 18:48:29;;;;;;;3.45;2.20;;;19.40;75.40;;;;;;5037616;28;20902;-89
2023/07/05 18:50:59;;;;;;;3.55;2.30;;;19.40;71.50;;;;;;5048149;28;20297;-88
2023/07/05 18:53:27;;;;;;;3.10;2.22;;;19.40;73.30;;;;;;5051930;28;20704;-87
2023/07/05 18:55:57;;;;;;;2.40;2.17;;;19.30;73.30;;;;;;5057739;28;20205;-89
2023/07/05 18:58:25;;;;;;;2.50;2.30;;;19.30;73.80;;;;;;5047702;28;20654;-90
2023/07/05 19:00:58;;;;;;;2.78;2.47;;;19.30;72.00;;;;;;5039089;28;20198;-90
2023/07/05 19:03:25;;;;;;;2.60;2.40;;;19.20;71.80;;;;;;5043805;28;20202;-91
2023/07/05 19:06:03;;;;;;;3.35;2.47;;;19.10;73.00;;;;;;5039668;28;20209;-90
2023/07/05 19:08:34;;;;;;;2.63;2.38;;;19.00;73.30;;;;;;5040258;28;20209;-90
2023/07/05 19:11:03;;;;;;;2.85;2.60;;;19.10;73.20;;;;;;5038302;28;20206;-90
2023/07/05 19:13:32;;;;;;;2.97;2.67;;;19.10;73.30;;;;;;5039837;28;20202;-90
2023/07/05 19:19:04;;;;;;;3.10;2.70;;;18.90;73.50;;;;;;5042030;28;20308;-90
2023/07/05 19:21:58;;;;;;;3.00;2.70;;;18.90;74.70;;;;;;5039228;28;20321;-91
2023/07/05 19:24:25;;;;;;;3.60;2.75;;;18.80;75.30;;;;;;5044671;28;20214;-89
2023/07/05 19:29:34;;;;;;;3.58;2.72;;;18.80;74.70;;;;;;5043565;28;20209;-89
2023/07/05 19:32:04;;;;;;;4.07;2.92;;;18.80;74.40;;;;;;5042700;28;20198;-90
2023/07/05 19:34:31;;;;;;;3.47;2.92;;;18.70;74.30;;;;;;5040216;28;20250;-89
2023/07/05 19:42:21;;;;;;;3.15;2.70;;;18.70;74.00;;;;;;5044729;28;20229;-91
2023/07/05 19:44:48;;;;;;;4.00;3.15;;;18.70;74.10;;;;;;5043863;28;20204;-90
2023/07/05 19:47:15;;;;;;;4.55;3.22;;;18.70;74.20;;;;;;5052498;28;20201;-89
2023/07/05 19:49:42;;;;;;;3.17;2.47;;;18.70;75.40;;;;;;5052826;28;20202;-93
2023/07/05 20:02:56;;;;;;;4.13;3.00;;;18.60;75.90;;;;;;5036415;28;20244;-91
2023/07/05 20:10:47;;;;;;;3.70;2.58;;;18.70;75.70;;;;;;5032254;28;20209;-91
2023/07/05 20:13:15;;;;;;;3.55;2.92;;;18.80;75.30;;;;;;5047411;28;20232;-89
2023/07/05 20:16:02;;;;;;;4.47;2.72;;;18.80;75.60;;;;;;5047920;28;20237;-89
2023/07/05 20:18:30;;;;;;;2.92;2.60;;;18.70;76.90;;;;;;5047779;28;20230;-90
2023/07/05 20:20:57;;;;;;;3.10;2.53;;;18.70;76.40;;;;;;5034691;28;20202;-90
2023/07/05 20:23:26;;;;;;;3.33;2.67;;;18.60;76.00;;;;;;5049242;28;20236;-90
2023/07/05 20:25:54;;;;;;;4.20;2.65;;;18.60;76.60;;;;;;5048262;28;20202;-90
2023/07/05 20:28:26;;;;;;;3.95;2.78;;;18.70;76.50;;;;;;5047648;28;20195;-89
2023/07/05 20:31:14;;;;;;;5.30;3.05;;;18.60;76.40;;;;;;5030978;28;20210;-89
2023/07/05 20:33:41;;;;;;;3.58;2.90;;;18.50;77.70;;;;;;5046208;28;20244;-90
2023/07/05 20:36:12;;;;;;;3.95;2.67;;;18.40;79.20;;;;;;5033732;28;20212;-91
2023/07/05 20:44:02;;;;;;;4.38;2.85;;;18.20;79.50;;;;;;5049354;28;20277;-89
2023/07/05 20:46:30;;;;;;;3.22;2.80;;;18.20;80.90;;;;;;5042513;28;20259;-89
2023/07/05 20:48:58;;;;;;;4.30;3.30;;;18.10;80.40;;;;;;5048738;28;20216;-90
2023/07/05 20:51:26;;;;;;;4.80;3.30;;;18.10;80.40;;;;;;5044622;28;20216;-91
2023/07/05 20:56:44;;;;;;;4.78;3.67;;;18.30;76.80;;;;;;5042365;28;20202;-88
2023/07/05 20:59:11;;;;;;;5.38;3.72;;;18.40;67.80;;;;;;5038529;28;20201;-89
2023/07/05 21:01:39;;;;;;;3.97;3.30;;;18.50;70.20;;;;;;5040226;28;20199;-89
2023/07/05 21:04:06;;;;;;;4.30;3.85;;;18.50;64.60;;;;;;5037582;28;20198;-89
2023/07/05 21:06:33;;;;;;;3.95;3.55;;;18.40;65.40;;;;;;5038349;28;20216;-89
2023/07/05 21:11:43;;;;;;;4.30;3.63;;;18.30;60.00;;;;;;5043363;28;20206;-90
2023/07/05 21:14:10;;;;;;;4.05;3.60;;;18.30;62.10;;;;;;5044265;28;20505;-87
2023/07/05 21:16:37;;;;;;;5.00;3.30;;;18.20;61.20;;;;;;5043882;28;20773;-89
2023/07/05 21:19:05;;;;;;;4.68;3.53;;;18.20;61.60;;;;;;5024382;28;20229;-89
2023/07/05 21:21:31;;;;;;;4.20;3.13;;;18.10;65.40;;;;;;5040030;28;20204;-89
2023/07/05 21:23:58;;;;;;;3.42;3.13;;;18.10;62.70;;;;;;5043401;28;20202;-89
2023/07/05 21:26:27;;;;;;;3.63;3.33;;;18.00;62.90;;;;;;5045483;28;20252;-88
2023/07/05 21:28:54;;;;;;;3.42;3.00;;;17.90;65.50;;;;;;5046238;28;20205;-88
2023/07/05 21:31:22;;;;;;;4.70;3.25;;;17.80;65.00;;;;;;5042275;28;20194;-89
2023/07/05 21:33:49;;;;;;;4.53;3.40;;;17.80;66.40;;;;;;5046115;28;20646;-91
2023/07/05 21:36:16;;;;;;;3.92;3.38;;;17.80;68.60;;;;;;5038542;28;20203;-89
2023/07/05 21:38:43;;;;;;;5.32;2.90;;;17.70;66.40;;;;;;5039120;28;20194;-88
2023/07/05 21:41:10;;;;;;;5.18;3.30;;;17.70;65.80;;;;;;5035808;28;20193;-89
2023/07/05 21:43:39;;;;;;;3.35;3.05;;;17.70;65.70;;;;;;5038218;28;20222;-89
2023/07/05 21:46:06;;;;;;;4.00;3.40;;;17.60;64.90;;;;;;5043993;28;20197;-89
2023/07/05 21:48:33;;;;;;;3.85;3.38;;;17.60;68.80;;;;;;5042419;28;20204;-88
2023/07/05 21:51:01;;;;;;;4.43;3.28;;;17.50;67.30;;;;;;5044304;28;20205;-92
2023/07/05 21:53:28;;;;;;;5.20;3.33;;;17.50;67.50;;;;;;5038009;28;20214;-88
2023/07/05 21:55:57;;;;;;;3.58;2.92;;;17.40;66.80;;;;;;5036377;28;20203;-90
2023/07/05 21:58:28;;;;;;;3.28;2.97;;;17.30;67.30;;;;;;5029117;28;20852;-89
2023/07/05 22:00:58;;;;;;;4.53;3.30;;;17.20;68.10;;;;;;5047321;28;20198;-90
2023/07/05 22:03:25;;;;;;;4.15;3.00;;;17.20;73.60;;;;;;5041485;28;20218;-89
2023/07/05 22:05:53;;;;;;;4.32;3.53;;;17.10;69.60;;;;;;5044604;28;20734;-91
2023/07/05 22:11:04;;;;;;;5.25;3.25;;;17.10;73.30;;;;;;5042471;28;20206;-88
2023/07/05 22:13:31;;;;;;;3.58;3.22;;;17.10;72.90;;;;;;5042648;28;20198;-89
2023/07/05 22:18:41;;;;;;;4.25;3.10;;;17.00;72.10;;;;;;5044938;28;20217;-88
2023/07/05 22:21:08;;;;;;;3.53;3.22;;;16.90;72.40;;;;;;5046617;28;20210;-89
2023/07/05 22:23:35;;;;;;;3.67;3.17;;;16.80;74.10;;;;;;5039085;28;20226;-88
2023/07/05 22:26:02;;;;;;;4.47;3.30;;;16.80;76.50;;;;;;5042669;28;20252;-90
2023/07/05 22:28:29;;;;;;;3.38;3.05;;;16.80;75.70;;;;;;5045367;28;20556;-89
2023/07/05 22:30:59;;;;;;;3.50;3.20;;;16.80;74.40;;;;;;5049188;28;20213;-89
2023/07/05 22:33:26;;;;;;;3.85;3.25;;;16.70;74.50;;;;;;5048474;28;20202;-88
2023/07/05 22:35:58;;;;;;;3.30;2.97;;;16.60;75.10;;;;;;5025834;28;20453;-89
2023/07/05 22:38:25;;;;;;;4.10;3.30;;;16.50;76.20;;;;;;5045432;28;20206;-88
2023/07/05 22:40:53;;;;;;;6.97;3.13;;;16.40;77.00;;;;;;5029670;28;20252;-91
2023/07/05 22:43:21;;;;;;;4.25;3.28;;;16.30;78.20;;;;;;5050375;28;20222;-90
2023/07/05 22:45:48;;;;;;;4.07;3.67;;;16.20;78.10;;;;;;5032247;28;20589;-88
2023/07/05 22:50:57;;;;;;;5.47;3.38;;;16.00;80.00;;;;;;5042718;28;20198;-88
2023/07/05 22:53:25;;;;;;;3.72;3.30;;;16.00;83.20;;;;;;5040568;28;20667;-88
2023/07/05 22:55:53;;;;;;;6.43;3.28;;;16.00;82.40;;;;;;5044486;28;20473;-89
2023/07/05 22:58:24;;;;;;;4.20;3.30;;;15.90;82.60;;;;;;5050248;28;20773;-89
2023/07/05 23:00:54;;;;;;;5.47;3.30;;;15.80;83.70;;;;;;5046218;28;20256;-89
2023/07/05 23:06:08;;;;;;;6.82;3.40;;;15.50;84.70;;;;;;5048159;28;20243;-88
2023/07/05 23:08:37;;;;;;;3.20;2.85;;;15.40;85.80;;;;;;5052688;28;20571;-88
2023/07/05 23:11:06;;;;;;;4.13;2.97;;;15.30;87.40;;;;;;5031632;28;20609;-89
2023/07/05 23:13:34;;;;;;;4.30;3.53;;;15.30;89.00;;;;;;5042468;28;20657;-86